Airfield :
LOGIN :

Register | Disclaimer

   EN    FR    IT 

 










Legend :    VFR   Marginal VFR   IFR   Intensive IFR   Very Intensive IFR
Visi :
Ceiling :
>= 8 km
>= 3000ft
5 to 8 km
1000 to 3000 ft
1500m to 5 km
500 to 1000 ft
800 to 1500m
200 to 500 ft
< 800m
< 200 ft
Symbols :   Thunderstorms  Fog  Heavy snow  Heavy precipitations  Wind > 20 kt
SIGMETs :     Misc.  Thunderstorms  Icing  Turbulence  Mountain Waves  Volcanic Ashes






- Airport Elevation : 1 ft


EGCK - Caernarfon

CURRENT METAR :
  • 102320Z AUTO 24019KT 9999 BKN022/// 08/04 Q1005

EXPIRED METARs :
  • 102250Z AUTO 24020KT 9999 BKN024/// 08/04 Q1004
  • 102220Z AUTO 24019KT 9999 BKN024/// 08/04 Q1004
  • 102150Z AUTO 25020KT 9999 BKN022/// 08/04 Q1003
  • 102120Z AUTO 24020KT 9999 SCT024/// 08/04 Q1003
  • 102050Z AUTO 25023KT 9999 BKN026/// 08/03 Q1002

TAF TAF EGCK
Valid from the 11 at 00:00 until the 11 at 09:00 UTC


102254Z 1100/1109 24018G35KT 9999 SCT020
PROB40
TEMPO 1100/1109 6000 SHRA BKN012



MET'MAP, your aeronautical weather chart ! - Copyright ORBIFLY December 2007 - Disclaimer

ORBIFLY MET'MAP TEAM :

Programming & Development : Alexandra Zaïnal
Concept & original design : Baudouin d'Aumeries
Assistance for programming : Marc-Olivier Méhu
Technical & hardware support : Manuel Goepfert

Contact : metmap@orbifly.com




SOURCES & CREDITS :

   NOAA